Aviation Digital Data Service (ADDS)

Output produced by METARs form (0345 UTC 28 April 2015)
found at http://aviationweather.gov/adds/metars/
 
KPNE 272340Z 2800/2824 32012KT P6SM BKN070 
     FM281200 34015G25KT P6SM SCT050 
     FM282300 33010KT P6SM SKC